Time;durP1;ratioP1;P1;durP2;ratioP2;P2;SDS_P1;SDS_P2;PMS_P1;PMS_P2;Temp;Humidity;BMP_temperature;BMP_pressure;BME280_temperature;BME280_humidity;BME280_pressure;Samples;Min_cycle;Max_cycle;Signal;HPM_P1;HPM_P2
2022/08/16 00:00:35;;;;;;;8.75;7.53;;;;;;;28.24;49.81;99968.41;2341908;76;50680;-72
2022/08/16 00:03:37;;;;;;;10.20;8.03;;;;;;;28.25;49.77;99969.23;2322028;76;51024;-74
2022/08/16 00:06:39;;;;;;;9.83;8.25;;;;;;;28.25;49.75;99965.14;2321887;76;51521;-74
2022/08/16 00:09:42;;;;;;;10.25;8.83;;;;;;;28.24;49.70;99962.97;2341879;76;51555;-74
2022/08/16 00:12:44;;;;;;;9.68;8.68;;;;;;;28.24;49.63;99960.25;2296189;76;50026;-74
2022/08/16 00:15:47;;;;;;;9.70;8.18;;;;;;;28.24;49.66;99957.53;2341926;75;51543;-74
2022/08/16 00:18:50;;;;;;;9.35;8.15;;;;;;;28.23;49.63;99957.23;2341773;75;50147;-74
2022/08/16 00:21:52;;;;;;;8.95;8.08;;;;;;;28.24;49.67;99962.97;2318591;75;51489;-72
2022/08/16 00:24:54;;;;;;;8.95;8.13;;;;;;;28.24;49.67;99969.77;2316392;75;50732;-74
2022/08/16 00:27:57;;;;;;;10.60;8.48;;;;;;;28.24;49.57;99972.50;2316032;75;50917;-74
2022/08/16 00:30:59;;;;;;;8.80;7.90;;;;;;;28.24;49.53;99972.50;2314393;75;50262;-74
2022/08/16 00:34:01;;;;;;;9.70;8.33;;;;;;;28.25;49.45;99969.23;2302612;77;50666;-73
2022/08/16 00:37:03;;;;;;;11.10;8.75;;;;;;;28.24;49.47;99972.50;2338481;74;51555;-74
2022/08/16 00:40:07;;;;;;;9.28;8.13;;;;;;;28.25;49.44;99974.12;2333329;74;50350;-73
2022/08/16 00:43:13;;;;;;;10.35;8.78;;;;;;;28.24;49.38;99977.94;2333398;74;50986;-73
2022/08/16 00:46:21;;;;;;;9.65;8.73;;;;;;;28.25;49.33;99985.00;2358767;74;49860;-74
2022/08/16 00:49:24;;;;;;;8.73;7.90;;;;;;;28.23;49.34;99978.48;2362845;74;50336;-75
2022/08/16 00:52:26;;;;;;;9.28;8.38;;;;;;;28.23;49.44;99980.36;2282007;77;49523;-73
2022/08/16 00:55:28;;;;;;;9.70;8.33;;;;;;;28.23;49.40;99980.36;2294934;77;50417;-72
2022/08/16 00:58:31;;;;;;;8.70;7.90;;;;;;;28.22;49.37;99982.81;2290408;77;50281;-73
2022/08/16 01:01:33;;;;;;;9.00;8.10;;;;;;;28.22;49.25;99984.17;2269613;77;51168;-74
2022/08/16 01:04:35;;;;;;;9.73;8.10;;;;;;;28.21;49.13;99982.00;2269459;77;50691;-74
2022/08/16 01:07:38;;;;;;;9.10;8.20;;;;;;;28.20;49.03;99984.42;2290558;77;51564;-73
2022/08/16 01:10:40;;;;;;;9.65;8.08;;;;;;;28.21;48.95;99998.33;2269497;77;49784;-74
2022/08/16 01:13:42;;;;;;;10.18;8.45;;;;;;;28.20;48.82;99989.05;2290776;77;50393;-74
2022/08/16 01:16:45;;;;;;;10.98;7.85;;;;;;;28.20;48.76;99990.41;2290500;77;50431;-74
2022/08/16 01:19:52;;;;;;;10.13;7.85;;;;;;;28.20;48.69;99993.13;2309071;75;50351;-74
2022/08/16 01:23:00;;;;;;;9.40;7.85;;;;;;;28.20;48.62;99993.13;2320110;76;51533;-73
2022/08/16 01:26:03;;;;;;;8.70;7.87;;;;;;;28.20;48.68;100001.30;2237346;78;51775;-74
2022/08/16 01:29:08;;;;;;;8.65;7.75;;;;;;;28.20;48.67;100002.66;2318283;76;50379;-73
2022/08/16 01:32:10;;;;;;;8.58;7.78;;;;;;;28.20;48.46;100005.38;2318601;76;52968;-73
2022/08/16 01:35:24;;;;;;;8.63;7.75;;;;;;;28.18;48.58;100009.73;2222929;76;50962;-73
2022/08/16 01:38:35;;;;;;;10.03;8.05;;;;;;;28.19;48.56;100017.35;2329488;75;50371;-73
2022/08/16 01:41:37;;;;;;;8.63;7.72;;;;;;;28.18;48.65;100025.22;2330045;76;51628;-73
2022/08/16 01:44:39;;;;;;;8.65;7.85;;;;;;;28.17;48.61;100022.23;2329934;75;51487;-74
2022/08/16 01:47:41;;;;;;;9.30;8.30;;;;;;;28.17;48.55;100020.32;2329875;76;50659;-74
2022/08/16 01:50:44;;;;;;;9.65;8.70;;;;;;;28.17;48.58;100019.51;2296801;76;52675;-74
2022/08/16 01:53:46;;;;;;;9.65;7.90;;;;;;;28.18;48.59;100015.70;2308281;76;50692;-74
2022/08/16 01:56:50;;;;;;;8.60;7.53;;;;;;;28.16;48.60;100011.89;2306495;77;51619;-74
2022/08/16 01:59:52;;;;;;;9.28;7.55;;;;;;;28.14;48.60;100008.61;2257296;77;50852;-73
2022/08/16 02:02:54;;;;;;;8.23;7.40;;;;;;;28.16;48.51;100011.08;2282644;76;51457;-73
2022/08/16 02:05:56;;;;;;;10.23;7.97;;;;;;;28.14;48.61;100004.53;2282610;77;51508;-73
2022/08/16 02:08:58;;;;;;;9.03;8.13;;;;;;;28.15;48.63;100003.98;2282581;77;51551;-73
2022/08/16 02:12:01;;;;;;;8.28;7.50;;;;;;;28.14;48.67;100001.00;2306812;77;50292;-74
2022/08/16 02:15:03;;;;;;;10.28;7.90;;;;;;;28.13;48.65;100008.34;2282705;77;49217;-74
2022/08/16 02:18:06;;;;;;;9.05;8.18;;;;;;;28.13;48.59;100014.30;2282434;76;51540;-74
2022/08/16 02:21:08;;;;;;;8.73;7.85;;;;;;;28.13;48.52;100016.51;2311300;76;50646;-72
2022/08/16 02:24:10;;;;;;;8.58;7.75;;;;;;;28.13;48.59;100011.58;2282813;77;49490;-73
2022/08/16 02:27:13;;;;;;;9.05;8.15;;;;;;;28.13;48.43;100027.39;2282756;77;50585;-73
2022/08/16 02:30:17;;;;;;;9.20;8.30;;;;;;;28.13;48.34;100026.03;2282729;75;49905;-72
2022/08/16 02:33:23;;;;;;;9.28;8.25;;;;;;;28.14;48.27;100029.56;2283415;77;50446;-71
2022/08/16 02:36:25;;;;;;;9.28;8.33;;;;;;;28.14;47.93;100037.72;2291078;76;50343;-70
2022/08/16 02:39:27;;;;;;;10.55;8.13;;;;;;;28.13;48.24;100033.34;2306072;76;49340;-71
2022/08/16 02:42:29;;;;;;;10.23;8.48;;;;;;;28.12;48.13;100025.73;2318397;75;50675;-71
2022/08/16 02:45:32;;;;;;;10.13;8.85;;;;;;;28.12;48.30;100034.44;2318500;76;51489;-71
2022/08/16 02:48:34;;;;;;;8.95;8.10;;;;;;;28.11;48.33;100024.65;2275533;76;51232;-71
2022/08/16 02:51:37;;;;;;;10.78;8.20;;;;;;;28.10;48.22;100017.55;2314701;76;50274;-71
2022/08/16 02:54:39;;;;;;;9.73;8.68;;;;;;;28.11;48.02;100026.02;2330235;76;51632;-70
2022/08/16 02:57:42;;;;;;;9.20;8.28;;;;;;;28.10;47.78;100029.80;2270968;76;51462;-71
2022/08/16 03:00:44;;;;;;;9.88;8.20;;;;;;;28.09;47.84;100039.05;2330229;76;51491;-71
2022/08/16 03:03:46;;;;;;;9.48;8.68;;;;;;;28.08;47.78;100037.39;2321204;75;51226;-71
2022/08/16 03:06:49;;;;;;;9.23;8.33;;;;;;;28.08;48.02;100038.75;2330161;76;51458;-71
2022/08/16 03:09:52;;;;;;;8.88;8.05;;;;;;;28.08;48.02;100042.31;2330197;76;51495;-71
2022/08/16 03:12:55;;;;;;;9.08;8.18;;;;;;;28.06;47.63;100043.11;2330285;75;50283;-72
2022/08/16 03:15:57;;;;;;;10.10;8.90;;;;;;;28.07;47.54;100050.72;2320651;75;51657;-72
2022/08/16 03:18:59;;;;;;;9.65;8.75;;;;;;;28.05;47.38;100037.91;2296179;75;51445;-71
2022/08/16 03:22:01;;;;;;;10.82;8.93;;;;;;;28.04;47.23;100044.45;2328655;76;51381;-71
2022/08/16 03:25:05;;;;;;;9.18;8.30;;;;;;;28.02;47.22;100043.34;2293970;76;51541;-71
2022/08/16 03:28:07;;;;;;;9.15;7.97;;;;;;;28.05;47.20;100052.88;2293572;76;49509;-71
2022/08/16 03:31:10;;;;;;;9.65;8.65;;;;;;;28.05;47.53;100051.52;2294331;76;51511;-72
2022/08/16 03:34:12;;;;;;;10.85;8.78;;;;;;;28.05;47.42;100043.36;2269067;76;51304;-71
2022/08/16 03:37:14;;;;;;;9.75;8.85;;;;;;;28.06;47.39;100045.02;2230823;77;50005;-71
2022/08/16 03:40:16;;;;;;;10.30;9.05;;;;;;;28.05;47.56;100052.88;2258126;77;50283;-71
2022/08/16 03:43:18;;;;;;;9.58;8.60;;;;;;;28.05;47.76;100048.80;2290880;77;50326;-72
2022/08/16 03:46:21;;;;;;;9.70;8.70;;;;;;;28.06;47.65;100051.27;2282003;77;51262;-72
2022/08/16 03:49:23;;;;;;;9.75;8.88;;;;;;;28.04;47.93;100050.70;2307542;75;51537;-71
2022/08/16 03:52:26;;;;;;;9.78;8.78;;;;;;;28.05;47.89;100044.72;2293997;75;50040;-72
2022/08/16 03:55:28;;;;;;;10.75;9.50;;;;;;;28.04;47.70;100051.25;2357592;74;51533;-72
2022/08/16 03:58:30;;;;;;;10.23;8.88;;;;;;;28.04;48.03;100053.97;2357388;75;51459;-71
2022/08/16 04:01:32;;;;;;;9.93;8.23;;;;;;;28.03;47.38;100055.03;2301152;75;52738;-71
2022/08/16 04:04:37;;;;;;;10.10;9.05;;;;;;;28.04;47.17;100059.41;2357602;75;50475;-71
2022/08/16 04:07:40;;;;;;;10.63;8.85;;;;;;;28.04;47.77;100053.97;2357360;74;50383;-72
2022/08/16 04:10:42;;;;;;;10.55;9.50;;;;;;;28.01;47.83;100058.84;2327476;75;51497;-72
2022/08/16 04:13:46;;;;;;;12.75;10.55;;;;;;;28.03;48.00;100057.23;2357481;75;50348;-72
2022/08/16 04:16:48;;;;;;;17.35;11.57;;;;;;;28.05;47.93;100062.39;2327199;75;51276;-71
2022/08/16 04:19:51;;;;;;;13.50;10.95;;;;;;;28.06;48.08;100065.41;2354882;75;51376;-72
2022/08/16 04:22:53;;;;;;;22.52;11.25;;;;;;;28.04;48.24;100062.12;2329599;75;53616;-72
2022/08/16 04:25:55;;;;;;;15.45;12.68;;;;;;;28.00;48.32;100068.09;2306709;75;51001;-73
2022/08/16 04:28:58;;;;;;;14.35;12.95;;;;;;;27.92;48.83;100079.42;2331612;74;51375;-72
2022/08/16 04:32:00;;;;;;;15.03;12.93;;;;;;;27.85;48.88;100065.25;2333308;75;50713;-72
2022/08/16 04:35:03;;;;;;;17.65;13.35;;;;;;;27.84;48.76;100073.66;2354245;74;49956;-72
2022/08/16 04:38:05;;;;;;;19.15;13.85;;;;;;;27.75;48.97;100079.54;2356369;74;52179;-72
2022/08/16 04:41:07;;;;;;;16.25;13.35;;;;;;;27.69;49.27;100082.45;2356435;74;50000;-72
2022/08/16 04:44:10;;;;;;;16.50;13.50;;;;;;;27.63;49.37;100082.14;2356540;74;51551;-72
2022/08/16 04:47:13;;;;;;;15.83;14.30;;;;;;;27.55;49.59;100082.88;2387138;73;50204;-71
2022/08/16 04:50:17;;;;;;;16.75;15.05;;;;;;;27.54;49.53;100079.89;2293051;75;50054;-72
2022/08/16 04:53:19;;;;;;;20.47;15.50;;;;;;;27.48;49.91;100082.80;2347670;75;51545;-71
2022/08/16 04:56:22;;;;;;;18.67;15.50;;;;;;;27.39;50.21;100088.43;2335558;76;50400;-72
2022/08/16 04:59:24;;;;;;;19.75;13.68;;;;;;;27.45;50.08;100099.08;2278503;76;50342;-71
2022/08/16 05:02:26;;;;;;;22.02;14.10;;;;;;;27.39;50.26;100097.39;2335752;76;50649;-71
2022/08/16 05:05:28;;;;;;;20.35;14.70;;;;;;;27.36;50.27;100106.06;2278402;76;52777;-75
2022/08/16 05:08:30;;;;;;;17.15;14.07;;;;;;;27.33;50.36;100101.11;2278360;76;50556;-75
2022/08/16 05:11:33;;;;;;;16.60;14.63;;;;;;;27.29;50.61;100100.00;2279068;76;50818;-76
2022/08/16 05:14:35;;;;;;;17.32;14.65;;;;;;;27.29;50.49;100103.53;2304268;76;51633;-76
2022/08/16 05:17:37;;;;;;;25.25;14.90;;;;;;;27.28;50.49;100103.77;2335836;75;51392;-75
2022/08/16 05:20:40;;;;;;;18.52;15.40;;;;;;;27.29;50.59;100102.72;2305182;76;50721;-75
2022/08/16 05:23:42;;;;;;;17.10;14.65;;;;;;;27.27;50.85;100104.86;2278748;76;52214;-75
2022/08/16 05:26:44;;;;;;;17.40;15.43;;;;;;;27.31;50.74;100104.64;2335935;76;49989;-74
2022/08/16 05:29:47;;;;;;;17.50;15.28;;;;;;;27.37;50.75;100110.41;2304168;76;50054;-74
2022/08/16 05:32:49;;;;;;;18.90;14.25;;;;;;;27.48;50.56;100123.56;2278814;76;51467;-74
2022/08/16 05:35:51;;;;;;;21.17;14.95;;;;;;;27.50;50.60;100122.77;2304227;76;51595;-74
2022/08/16 05:38:53;;;;;;;17.45;14.33;;;;;;;27.53;50.76;100117.64;2304016;76;50044;-74
2022/08/16 05:41:55;;;;;;;18.82;14.23;;;;;;;27.60;50.64;100116.63;2336143;76;50292;-75
2022/08/16 05:44:59;;;;;;;18.70;13.88;;;;;;;27.58;50.93;100113.61;2336130;76;50681;-74
2022/08/16 05:48:02;;;;;;;17.52;13.20;;;;;;;27.61;50.81;100112.28;2279952;76;51487;-74
2022/08/16 05:51:04;;;;;;;19.92;13.88;;;;;;;27.68;50.72;100114.26;2303945;76;50437;-74
2022/08/16 05:54:07;;;;;;;17.55;14.30;;;;;;;27.71;50.63;100113.73;2278347;76;50736;-75
2022/08/16 05:57:10;;;;;;;18.05;13.75;;;;;;;27.66;50.79;100108.25;2338481;76;51552;-75
2022/08/16 06:00:13;;;;;;;23.38;13.35;;;;;;;27.69;50.79;100113.17;2309238;76;50610;-75
2022/08/16 06:03:15;;;;;;;14.85;12.95;;;;;;;27.78;50.52;100116.27;2309733;76;50787;-74
2022/08/16 06:06:17;;;;;;;20.27;13.60;;;;;;;27.86;50.27;100117.72;2312106;75;51517;-75
2022/08/16 06:09:20;;;;;;;25.10;14.53;;;;;;;27.88;50.16;100121.02;2314759;75;50586;-76
2022/08/16 06:12:22;;;;;;;16.60;11.97;;;;;;;27.94;50.20;100127.58;2311424;76;50809;-74
2022/08/16 06:15:24;;;;;;;16.00;12.53;;;;;;;27.96;49.85;100128.69;2308840;76;50386;-74
2022/08/16 06:18:26;;;;;;;16.20;12.85;;;;;;;27.96;49.82;100128.14;2284915;75;51270;-75
2022/08/16 06:21:28;;;;;;;15.68;12.47;;;;;;;28.00;49.71;100121.13;2352566;75;50678;-76
2022/08/16 06:24:31;;;;;;;14.35;12.60;;;;;;;28.07;49.57;100127.69;2293364;75;51504;-75
2022/08/16 06:27:33;;;;;;;13.50;11.97;;;;;;;28.14;49.38;100134.28;2293042;75;49908;-73
2022/08/16 06:30:35;;;;;;;13.95;12.45;;;;;;;28.22;49.12;100140.05;2319499;75;50581;-74
2022/08/16 06:33:38;;;;;;;13.10;11.70;;;;;;;28.24;49.10;100143.89;2355156;75;50689;-76
2022/08/16 06:36:41;;;;;;;12.95;11.57;;;;;;;28.11;49.32;100147.05;2357892;75;50673;-76
2022/08/16 06:39:43;;;;;;;14.45;11.53;;;;;;;28.13;49.25;100157.11;2339579;73;51029;-76
2022/08/16 06:42:45;;;;;;;15.40;12.80;;;;;;;28.15;49.31;100164.47;2334310;75;51788;-75
2022/08/16 06:45:48;;;;;;;13.58;12.13;;;;;;;28.16;49.34;100167.49;2307491;75;50036;-76
2022/08/16 06:48:50;;;;;;;18.67;13.05;;;;;;;28.14;49.65;100160.94;2343378;75;52422;-74
2022/08/16 06:51:52;;;;;;;15.70;12.82;;;;;;;28.13;49.64;100169.34;2291155;76;51020;-76
2022/08/16 06:54:55;;;;;;;17.45;13.45;;;;;;;28.14;49.70;100168.29;2319790;76;51359;-75
2022/08/16 06:57:57;;;;;;;15.40;12.43;;;;;;;28.12;49.98;100169.08;2280613;77;50266;-76
2022/08/16 07:01:01;;;;;;;15.78;13.95;;;;;;;28.03;49.99;100175.54;2256354;77;50011;-75
2022/08/16 07:04:03;;;;;;;16.82;13.00;;;;;;;28.11;50.05;100175.61;2280922;77;51520;-75
2022/08/16 07:07:05;;;;;;;16.70;13.35;;;;;;;28.13;49.93;100170.20;2255732;77;50935;-76
2022/08/16 07:10:08;;;;;;;14.90;12.98;;;;;;;28.15;49.95;100178.08;2280896;77;50672;-75
2022/08/16 07:13:10;;;;;;;13.88;12.37;;;;;;;28.09;50.00;100173.69;2302666;77;50311;-75
2022/08/16 07:16:16;;;;;;;15.15;12.68;;;;;;;28.08;50.11;100176.10;2280771;77;49485;-75
2022/08/16 07:19:18;;;;;;;14.40;12.10;;;;;;;28.06;50.09;100175.56;2305764;76;51505;-75
2022/08/16 07:22:21;;;;;;;16.05;12.15;;;;;;;28.11;49.97;100181.05;2292373;77;50421;-75
2022/08/16 07:25:23;;;;;;;14.95;12.13;;;;;;;28.11;50.05;100179.14;2282797;77;50633;-75
2022/08/16 07:28:25;;;;;;;16.20;11.83;;;;;;;28.17;49.99;100182.73;2306499;75;51570;-75
2022/08/16 07:31:27;;;;;;;16.00;12.73;;;;;;;28.17;49.92;100184.90;2282690;77;51724;-74
2022/08/16 07:34:30;;;;;;;15.80;13.22;;;;;;;28.12;49.81;100187.58;2257513;77;51730;-75
2022/08/16 07:37:32;;;;;;;14.45;12.63;;;;;;;27.87;50.64;100188.14;2316551;76;51535;-75
2022/08/16 07:40:35;;;;;;;15.38;12.80;;;;;;;27.99;50.39;100192.08;2280419;76;50146;-75
2022/08/16 07:43:37;;;;;;;15.35;13.75;;;;;;;27.83;50.55;100193.02;2318800;76;50622;-76
2022/08/16 07:46:39;;;;;;;16.35;12.85;;;;;;;27.92;50.36;100199.62;2318118;76;50391;-74
2022/08/16 07:49:42;;;;;;;14.78;13.38;;;;;;;27.96;50.36;100194.77;2272708;76;51519;-74
2022/08/16 07:52:44;;;;;;;16.00;12.80;;;;;;;28.01;50.07;100193.47;2316900;76;51480;-75
2022/08/16 07:55:47;;;;;;;13.75;12.30;;;;;;;28.05;50.08;100198.38;2292065;76;49550;-75
2022/08/16 07:58:50;;;;;;;14.75;13.05;;;;;;;28.12;50.07;100205.80;2292267;76;49932;-74
2022/08/16 08:01:53;;;;;;;15.18;13.25;;;;;;;27.99;50.08;100211.12;2292332;76;50206;-74
2022/08/16 08:04:56;;;;;;;14.33;12.82;;;;;;;27.99;49.98;100211.93;2316433;76;51454;-75
2022/08/16 08:07:58;;;;;;;14.68;12.82;;;;;;;27.88;50.38;100210.20;2316118;76;50496;-74
2022/08/16 08:11:00;;;;;;;17.98;12.88;;;;;;;27.77;50.54;100205.16;2316399;76;50297;-74
2022/08/16 08:14:02;;;;;;;15.35;12.07;;;;;;;27.80;50.37;100205.19;2292166;76;50568;-75
2022/08/16 08:17:06;;;;;;;20.32;14.03;;;;;;;27.83;50.55;100202.53;2291914;76;50656;-74
2022/08/16 08:20:09;;;;;;;15.83;12.78;;;;;;;27.80;50.49;100209.27;2271992;76;52082;-74
2022/08/16 08:23:12;;;;;;;20.12;13.93;;;;;;;27.79;50.70;100211.14;2290383;76;52028;-74
2022/08/16 08:26:15;;;;;;;16.40;12.50;;;;;;;27.72;50.92;100215.98;2319280;76;51554;-74
2022/08/16 08:29:18;;;;;;;17.27;12.28;;;;;;;27.83;50.91;100217.48;2305879;76;49570;-76
2022/08/16 08:32:20;;;;;;;18.95;12.78;;;;;;;27.79;51.15;100226.09;2318341;76;50775;-74
2022/08/16 08:35:22;;;;;;;17.25;11.85;;;;;;;27.76;51.14;100235.31;2318447;76;52528;-74
2022/08/16 08:38:26;;;;;;;16.02;12.85;;;;;;;27.86;50.91;100233.28;2279089;76;52227;-74
2022/08/16 08:41:28;;;;;;;15.65;13.58;;;;;;;27.89;51.06;100230.86;2283092;77;50670;-75
2022/08/16 08:44:31;;;;;;;18.07;14.40;;;;;;;27.79;51.84;100234.25;2257306;77;52113;-74
2022/08/16 08:47:33;;;;;;;18.95;14.07;;;;;;;27.61;52.47;100231.88;2306502;77;51554;-74
2022/08/16 08:50:35;;;;;;;14.70;13.00;;;;;;;27.78;51.70;100235.88;2310613;76;51500;-75
2022/08/16 08:53:38;;;;;;;15.50;12.73;;;;;;;27.88;51.37;100241.47;2228629;77;52700;-74
2022/08/16 08:56:40;;;;;;;16.80;12.90;;;;;;;27.95;51.05;100236.66;2309527;75;50286;-75
2022/08/16 08:59:44;;;;;;;15.88;13.00;;;;;;;28.05;50.89;100240.54;2294737;75;52421;-75
2022/08/16 09:02:47;;;;;;;16.40;12.25;;;;;;;27.70;52.06;100241.23;2320838;75;51540;-75
2022/08/16 09:05:54;;;;;;;12.60;11.38;;;;;;;27.79;51.34;100239.69;2320410;75;50358;-76
2022/08/16 09:08:53;;;;;;;16.67;12.28;;;;;;;27.84;51.26;100238.96;2352168;75;22279;-76
2022/08/16 09:11:56;;;;;;;15.45;12.28;;;;;;;27.65;51.72;100243.08;2320491;75;51470;-75
2022/08/16 09:14:59;;;;;;;13.60;12.10;;;;;;;27.90;51.04;100246.63;2352907;75;50433;-75
2022/08/16 09:18:02;;;;;;;12.07;10.82;;;;;;;27.77;51.09;100246.45;2294523;75;51031;-75
2022/08/16 09:21:05;;;;;;;13.45;10.75;;;;;;;27.92;49.81;100249.92;2351988;75;51579;-76
2022/08/16 09:24:08;;;;;;;13.38;11.97;;;;;;;27.89;49.89;100255.88;2350955;75;51662;-75
2022/08/16 09:27:10;;;;;;;14.03;12.53;;;;;;;27.71;50.56;100257.81;2292892;75;50180;-74
2022/08/16 09:30:13;;;;;;;14.07;12.40;;;;;;;27.81;50.33;100253.07;2318901;75;50391;-75
2022/08/16 09:33:17;;;;;;;13.43;12.07;;;;;;;27.83;50.44;100256.36;2293325;75;51517;-75
2022/08/16 09:36:19;;;;;;;13.62;12.18;;;;;;;27.87;50.16;100252.58;2318706;75;49314;-75
2022/08/16 09:39:21;;;;;;;12.80;11.48;;;;;;;27.68;50.64;100255.61;2318832;75;50388;-74
2022/08/16 09:42:24;;;;;;;16.82;11.83;;;;;;;27.81;50.43;100248.99;2318804;75;50256;-75
2022/08/16 09:45:27;;;;;;;15.70;12.30;;;;;;;27.71;50.57;100246.12;2293118;75;51569;-74
2022/08/16 09:48:31;;;;;;;15.28;12.70;;;;;;;27.58;50.91;100248.14;2351555;75;50667;-74
2022/08/16 09:51:33;;;;;;;13.78;12.33;;;;;;;27.77;50.11;100240.50;2304722;75;50229;-73
2022/08/16 09:54:36;;;;;;;14.25;12.53;;;;;;;27.86;49.54;100234.64;2327235;75;51618;-73
2022/08/16 09:57:40;;;;;;;20.15;12.20;;;;;;;27.85;49.67;100233.83;2357171;75;50669;-73
2022/08/16 10:00:43;;;;;;;13.58;12.05;;;;;;;27.89;49.73;100238.20;2277412;75;49486;-74
2022/08/16 10:03:45;;;;;;;26.10;13.88;;;;;;;27.95;49.67;100235.81;2327443;75;50725;-74
2022/08/16 10:06:48;;;;;;;23.20;12.80;;;;;;;27.88;49.97;100248.27;2327040;75;49709;-73
2022/08/16 10:09:50;;;;;;;24.95;12.43;;;;;;;27.80;50.04;100246.78;2302105;75;51541;-76
2022/08/16 10:16:12;;;;;;;20.35;10.35;;;;;;;28.34;48.85;100250.64;2357866;75;24313;-74
2022/08/16 10:19:14;;;;;;;22.25;12.13;;;;;;;28.32;49.03;100241.36;2350340;75;50377;-72
2022/08/16 10:22:17;;;;;;;12.15;10.85;;;;;;;28.29;48.16;100233.72;2352684;75;51531;-72
2022/08/16 10:25:20;;;;;;;11.80;10.50;;;;;;;28.09;48.09;100240.32;2307010;75;50178;-74
2022/08/16 10:28:22;;;;;;;14.10;11.08;;;;;;;28.00;48.16;100231.27;2333005;75;50014;-75
2022/08/16 10:31:25;;;;;;;19.67;11.88;;;;;;;27.96;47.66;100231.48;2353309;75;51549;-75
2022/08/16 10:34:27;;;;;;;13.00;10.43;;;;;;;27.94;47.64;100230.91;2307105;75;51610;-75
2022/08/16 10:37:29;;;;;;;11.50;10.28;;;;;;;27.96;47.15;100230.13;2306750;75;51530;-74
2022/08/16 10:40:32;;;;;;;12.50;10.72;;;;;;;27.84;47.58;100234.88;2333397;75;51568;-75
2022/08/16 10:43:35;;;;;;;11.73;10.18;;;;;;;27.87;47.61;100238.45;2333218;75;51595;-74
2022/08/16 10:46:37;;;;;;;10.65;9.60;;;;;;;27.89;47.48;100234.94;2353084;75;50382;-74
2022/08/16 10:49:39;;;;;;;12.60;9.95;;;;;;;27.93;46.83;100219.77;2302391;75;51747;-71
2022/08/16 10:52:42;;;;;;;16.95;9.55;;;;;;;27.94;46.61;100228.20;2352874;74;51554;-73
2022/08/16 10:55:44;;;;;;;13.38;9.83;;;;;;;27.96;46.77;100230.13;2292745;75;51490;-73
2022/08/16 10:58:47;;;;;;;10.63;9.40;;;;;;;27.97;46.50;100233.12;2306637;77;51483;-72
2022/08/16 11:01:49;;;;;;;14.80;9.60;;;;;;;28.07;46.63;100232.95;2283351;77;50655;-73
2022/08/16 11:04:53;;;;;;;11.57;9.78;;;;;;;28.06;46.35;100229.96;2282695;77;52466;-74
2022/08/16 11:07:55;;;;;;;13.30;9.38;;;;;;;27.97;46.65;100235.84;2282933;77;52368;-76
2022/08/16 11:10:57;;;;;;;14.43;10.72;;;;;;;27.94;46.93;100226.84;2306915;77;52260;-73
2022/08/16 11:13:59;;;;;;;12.60;9.85;;;;;;;27.99;46.90;100230.97;2257635;77;51703;-73
2022/08/16 11:17:03;;;;;;;11.85;10.35;;;;;;;27.85;46.59;100239.27;2282608;77;50196;-73
2022/08/16 11:20:07;;;;;;;13.20;9.73;;;;;;;27.84;46.30;100230.80;2310676;76;50317;-74
2022/08/16 11:23:10;;;;;;;14.25;10.58;;;;;;;27.82;46.02;100234.31;2266204;76;51537;-74
2022/08/16 11:26:13;;;;;;;12.35;10.08;;;;;;;27.87;46.58;100235.73;2321469;76;50429;-75
2022/08/16 11:29:15;;;;;;;10.03;9.13;;;;;;;27.95;46.80;100231.73;2234138;76;50900;-73
2022/08/16 11:32:17;;;;;;;13.50;9.70;;;;;;;27.82;46.32;100227.52;2321649;76;51645;-74
2022/08/16 11:35:22;;;;;;;11.68;9.78;;;;;;;27.86;45.61;100235.45;2321794;76;51606;-75
2022/08/16 11:38:24;;;;;;;14.68;10.40;;;;;;;27.96;45.91;100228.77;2287773;76;49577;-74
2022/08/16 11:41:27;;;;;;;11.90;9.20;;;;;;;27.85;46.07;100235.70;2321890;76;50733;-73
2022/08/16 11:44:29;;;;;;;10.93;8.33;;;;;;;27.88;45.49;100233.31;2288183;76;51589;-73
2022/08/16 11:47:31;;;;;;;12.33;8.40;;;;;;;27.84;45.03;100232.16;2288100;76;50363;-74
2022/08/16 11:50:33;;;;;;;13.05;8.30;;;;;;;27.92;44.87;100237.14;2257179;77;52171;-73
2022/08/16 11:53:36;;;;;;;9.83;7.78;;;;;;;27.88;44.69;100240.65;2296605;76;49616;-74
2022/08/16 11:56:38;;;;;;;9.43;7.80;;;;;;;27.83;44.15;100231.08;2308686;75;51555;-73
2022/08/16 11:59:40;;;;;;;10.35;7.90;;;;;;;27.90;44.33;100231.16;2307250;76;50368;-74
2022/08/16 12:02:42;;;;;;;8.73;7.42;;;;;;;28.10;44.03;100236.52;2307858;76;49579;-74
2022/08/16 12:05:45;;;;;;;10.20;7.47;;;;;;;28.03;44.49;100235.38;2307827;76;50235;-73
2022/08/16 12:08:47;;;;;;;8.80;7.90;;;;;;;27.96;44.64;100234.20;2329635;76;50755;-74
2022/08/16 12:11:50;;;;;;;15.70;7.83;;;;;;;27.97;44.22;100231.76;2330067;76;50093;-73
2022/08/16 12:14:52;;;;;;;12.00;7.83;;;;;;;27.96;44.24;100241.00;2330033;76;52055;-74
2022/08/16 12:17:54;;;;;;;10.38;7.97;;;;;;;27.86;45.18;100242.80;2307254;76;49638;-75
2022/08/16 12:20:56;;;;;;;11.05;8.25;;;;;;;27.82;45.04;100243.02;2323989;76;50317;-75
2022/08/16 12:23:59;;;;;;;11.35;8.33;;;;;;;27.87;44.82;100235.73;2284696;76;50589;-75
2022/08/16 12:27:01;;;;;;;9.48;8.15;;;;;;;27.96;44.48;100234.20;2221647;76;50917;-75
2022/08/16 12:30:04;;;;;;;12.15;8.58;;;;;;;27.98;44.46;100242.12;2318142;76;50755;-74
2022/08/16 12:33:07;;;;;;;8.73;7.53;;;;;;;27.96;44.23;100246.45;2318184;76;51555;-74
2022/08/16 12:36:10;;;;;;;18.73;10.23;;;;;;;28.13;43.95;100238.20;2295599;76;50514;-74
2022/08/16 12:39:13;;;;;;;12.75;9.53;;;;;;;27.96;43.45;100235.56;2288732;77;51449;-73
2022/08/16 12:42:18;;;;;;;11.40;8.50;;;;;;;28.11;43.20;100238.98;2267622;77;51388;-75
2022/08/16 12:45:20;;;;;;;11.25;8.65;;;;;;;27.93;42.96;100232.55;2289077;77;22270;-73
2022/08/16 12:51:46;;;;;;;16.42;10.15;;;;;;;27.98;43.38;100226.62;2317271;76;22372;-74
2022/08/16 12:54:48;;;;;;;16.48;12.95;;;;;;;27.92;43.13;100226.27;2329974;76;51591;-74
2022/08/16 12:57:54;;;;;;;12.95;10.95;;;;;;;27.88;43.06;100229.77;2307574;76;50385;-74
2022/08/16 13:00:57;;;;;;;10.30;9.18;;;;;;;27.97;43.28;100229.03;2330190;76;50735;-74
2022/08/16 13:03:59;;;;;;;10.80;8.53;;;;;;;28.06;43.31;100225.88;2330268;76;51482;-73
2022/08/16 13:07:03;;;;;;;11.28;8.80;;;;;;;28.01;43.41;100224.73;2281806;76;51112;-73
2022/08/16 13:10:12;;;;;;;10.55;8.00;;;;;;;27.94;43.72;100229.55;2307873;76;50406;-74
2022/08/16 13:13:15;;;;;;;9.18;7.12;;;;;;;27.99;43.22;100232.88;2308716;76;22419;-74
2022/08/16 13:16:16;;;;;;;13.10;7.17;;;;;;;28.00;42.88;100228.55;2308174;76;22305;-74
2022/08/16 13:19:19;;;;;;;10.55;7.28;;;;;;;28.04;42.40;100229.39;2302972;76;51547;-74
2022/08/16 13:22:22;;;;;;;8.63;7.67;;;;;;;28.00;42.41;100221.75;2272952;76;50050;-75
2022/08/16 13:25:25;;;;;;;10.50;7.25;;;;;;;27.99;42.44;100216.01;2308130;76;50824;-74
2022/08/16 13:28:27;;;;;;;9.95;7.22;;;;;;;28.02;42.02;100224.20;2329597;76;51595;-74
2022/08/16 13:31:29;;;;;;;9.58;6.83;;;;;;;28.10;41.76;100221.55;2307695;76;52445;-74
2022/08/16 13:34:32;;;;;;;8.93;6.92;;;;;;;27.95;42.09;100222.21;2307701;76;51501;-79
2022/08/16 13:37:34;;;;;;;8.40;6.50;;;;;;;28.02;42.00;100225.55;2329669;76;51389;-74
2022/08/16 13:40:36;;;;;;;10.00;7.20;;;;;;;27.99;41.93;100224.17;2282464;76;50981;-74
2022/08/16 13:43:38;;;;;;;7.95;6.45;;;;;;;28.03;41.98;100227.73;2307656;76;51391;-74
2022/08/16 13:46:41;;;;;;;9.68;7.62;;;;;;;28.00;41.79;100227.19;2329843;75;50674;-74
2022/08/16 13:49:45;;;;;;;8.50;6.87;;;;;;;28.09;41.81;100236.24;2277172;76;51460;-74
2022/08/16 13:52:47;;;;;;;9.15;7.03;;;;;;;28.12;41.80;100227.02;2276784;76;24924;-73
2022/08/16 13:55:49;;;;;;;11.18;6.53;;;;;;;28.07;41.76;100222.89;2272728;76;49504;-75
2022/08/16 13:58:51;;;;;;;7.97;7.17;;;;;;;28.01;41.77;100223.92;2292037;76;50114;-73
2022/08/16 14:01:54;;;;;;;9.50;6.70;;;;;;;28.03;41.73;100223.65;2321705;76;51536;-73
2022/08/16 14:04:57;;;;;;;8.10;7.12;;;;;;;28.05;41.71;100229.66;2262624;76;51512;-73